Dru Lirette — WDB9956 — position and weather

sailwx.info

Track history (hours):
 
Tides and Currents Weather Stations Pressure Air Temp Water Temp Dewpoint Dewpoint Depression Visibility Wind Speed Wind Dir Waves Ship Positions

Dru Lirette

Owner: AEP River Operations LLC, Chesterfield, MO. More information available from US FCC via Universal Licensing System and Coast Guard Vessel Documentation Center.

Last reported at 2015-Nov-20 13:14 UTC. Time now 2016-Dec-08 22:09 UTC.
Position N 38°54' W 084°50'.
Warning: this ship's position is years out of date!

Length 46 m; draft 10 m.

Type: Towing. MMSI: 366985660.

Date/timePositionNaut miles runAvg speedWind from/ knotsBaromVisibWave heightAir tempDewpointWater temp
2015-Nov-20 13:14N 38°54' W 084°50'3 3.7
2015-Nov-20 12:31N 38°57' W 084°51'6 5.1
2015-Nov-20 11:24N 39°02' W 084°53'4 4.8
2015-Nov-20 10:31N 39°06' W 084°50'5 5.5
2015-Nov-20 09:32N 39°09' W 084°44'3 3.2
2015-Nov-20 08:31N 39°06' W 084°41'2 2.2
2015-Nov-20 07:33N 39°05' W 084°39'0 0.1
2015-Nov-20 06:33N 39°05' W 084°39'1 0.8
2015-Nov-20 05:33N 39°06' W 084°40'4 3.7
2015-Nov-20 04:33N 39°08' W 084°43'  
Track history (hours):
 
Tides and Currents Weather Stations Pressure Air Temp Water Temp Dewpoint Dewpoint Depression Visibility Wind Speed Wind Dir Waves Ship Positions

Dru Lirette

Owner: AEP River Operations LLC, Chesterfield, MO. More information available from US FCC via Universal Licensing System and Coast Guard Vessel Documentation Center.

Last reported at 2015-Nov-20 13:14 UTC. Time now 2016-Dec-08 22:09 UTC.
Position N 38°54' W 084°50'.
Warning: this ship's position is years out of date!

Length 46 m; draft 10 m.

Type: Towing. MMSI: 366985660.

Date/timePositionNaut miles runAvg speedWind from/ knotsBaromVisibWave heightAir tempDewpointWater temp
2015-Nov-20 13:14N 38°54' W 084°50'3 3.7
2015-Nov-20 12:31N 38°57' W 084°51'6 5.1
2015-Nov-20 11:24N 39°02' W 084°53'4 4.8
2015-Nov-20 10:31N 39°06' W 084°50'5 5.5
2015-Nov-20 09:32N 39°09' W 084°44'3 3.2
2015-Nov-20 08:31N 39°06' W 084°41'2 2.2
2015-Nov-20 07:33N 39°05' W 084°39'0 0.1
2015-Nov-20 06:33N 39°05' W 084°39'1 0.8
2015-Nov-20 05:33N 39°06' W 084°40'4 3.7
2015-Nov-20 04:33N 39°08' W 084°43'  

Dump ship's entire track history